createdAt,value
2018-05-03T00:02:40.406Z,100738.44
2018-05-03T00:05:44.589Z,100729.38
2018-05-03T00:08:47.915Z,100733.23
2018-05-03T00:11:52.090Z,100734.48
2018-05-03T00:14:55.418Z,100736.65
2018-05-03T00:17:58.769Z,100728.87
2018-05-03T00:21:02.107Z,100727.17
2018-05-03T00:24:05.452Z,100716.73
2018-05-03T00:27:08.764Z,100717.95
2018-05-03T00:30:12.213Z,100706.59
2018-05-03T00:33:16.315Z,100705.78
2018-05-03T00:36:19.713Z,100711.70
2018-05-03T00:39:23.056Z,100713.77
2018-05-03T00:42:26.415Z,100707.67
2018-05-03T00:45:29.721Z,100701.56
2018-05-03T00:48:33.048Z,100703.25
2018-05-03T00:51:36.377Z,100710.95
2018-05-03T00:54:48.401Z,100710.90
2018-05-03T00:57:51.749Z,100712.98
2018-05-03T01:00:55.070Z,100710.25
2018-05-03T01:03:58.402Z,100707.26
2018-05-03T01:07:01.722Z,100707.17
2018-05-03T01:10:05.810Z,100705.87
2018-05-03T01:13:09.141Z,100708.89
2018-05-03T01:16:13.207Z,100708.95
2018-05-03T01:19:16.516Z,100728.95
2018-05-03T01:22:19.820Z,100741.50
2018-05-03T01:25:23.145Z,100747.42
2018-05-03T01:28:27.225Z,100751.64
2018-05-03T01:31:30.581Z,100750.44
2018-05-03T01:34:33.908Z,100751.16
2018-05-03T01:37:37.238Z,100759.70
2018-05-03T01:40:40.623Z,100756.57
2018-05-03T01:43:44.013Z,100756.91
2018-05-03T01:46:47.329Z,100752.08
2018-05-03T01:49:50.719Z,100754.58
2018-05-03T01:52:54.119Z,100758.95
2018-05-03T01:55:57.522Z,100767.56
2018-05-03T01:59:00.831Z,100766.36
2018-05-03T02:02:04.136Z,100771.49
2018-05-03T02:05:07.457Z,100764.58
2018-05-03T02:08:12.157Z,100763.23
2018-05-03T02:11:15.547Z,100760.14
2018-05-03T02:14:18.945Z,100761.23
2018-05-03T02:17:22.250Z,100765.43
2018-05-03T02:20:25.645Z,100766.56
2018-05-03T02:23:28.973Z,100768.29
2018-05-03T02:26:33.046Z,100759.70
2018-05-03T02:29:36.456Z,100750.62
2018-05-03T02:32:39.791Z,100757.17
2018-05-03T02:35:43.873Z,100750.25
2018-05-03T02:38:47.256Z,100751.16
2018-05-03T02:41:50.667Z,100751.98
2018-05-03T02:44:54.065Z,100751.60
2018-05-03T02:47:57.461Z,100759.91
2018-05-03T02:51:00.873Z,100756.14
2018-05-03T02:54:04.203Z,100754.80
2018-05-03T02:57:26.196Z,100752.69
2018-05-03T03:00:53.059Z,100760.91
2018-05-03T03:04:20.062Z,100758.79
2018-05-03T03:11:49.321Z,100768.36
2018-05-03T03:15:15.917Z,100767.55
2018-05-03T03:18:42.741Z,100771.94
2018-05-03T03:22:09.576Z,100771.59
2018-05-03T03:29:43.936Z,100757.81
2018-05-03T03:33:05.271Z,100770.30
2018-05-03T03:40:25.681Z,100767.50
2018-05-03T03:43:46.801Z,100771.39
2018-05-03T03:46:50.200Z,100775.70
2018-05-03T03:49:53.606Z,100778.25
2018-05-03T03:52:56.927Z,100784.79
2018-05-03T03:56:01.014Z,100791.77
2018-05-03T03:59:04.427Z,100789.18
2018-05-03T04:02:07.804Z,100795.67
2018-05-03T04:05:11.214Z,100792.31
2018-05-03T04:08:14.545Z,100795.78
2018-05-03T04:11:18.635Z,100802.80
2018-05-03T04:14:22.027Z,100813.19
2018-05-03T04:17:43.247Z,100807.18
2018-05-03T04:21:15.080Z,100815.36
2018-05-03T04:24:36.066Z,100816.22
2018-05-03T04:27:40.161Z,100825.78
2018-05-03T04:30:43.539Z,100828.48
2018-05-03T04:33:46.937Z,100827.58
2018-05-03T04:36:50.337Z,100834.50
2018-05-03T04:39:53.738Z,100843.91
2018-05-03T04:42:57.056Z,100865.60
2018-05-03T04:46:00.442Z,100880.31
2018-05-03T04:49:03.824Z,100889.30
2018-05-03T04:52:07.157Z,100887.56
2018-05-03T04:55:10.542Z,100901.98
2018-05-03T04:58:13.864Z,100912.65
2018-05-03T05:01:17.229Z,100915.09
2018-05-03T05:04:20.642Z,100923.80
2018-05-03T05:07:24.034Z,100927.91
2018-05-03T05:10:27.497Z,100938.34
2018-05-03T05:13:30.834Z,100948.55
2018-05-03T05:16:34.225Z,100940.11
2018-05-03T05:19:37.526Z,100937.04
2018-05-03T05:22:40.924Z,100942.28
2018-05-03T05:25:44.313Z,100946.19
2018-05-03T05:28:47.729Z,100962.36
2018-05-03T05:31:51.030Z,100963.02
2018-05-03T05:34:54.391Z,100973.80
2018-05-03T05:37:57.692Z,100975.64
2018-05-03T05:41:01.039Z,100986.58
2018-05-03T05:44:04.347Z,100992.19
2018-05-03T05:47:07.672Z,101001.73
2018-05-03T05:50:11.750Z,101006.41
2018-05-03T05:53:15.073Z,101015.95
2018-05-03T05:56:19.140Z,101010.95
2018-05-03T05:59:22.478Z,101007.73
2018-05-03T06:02:26.555Z,101023.44
2018-05-03T06:05:30.016Z,101018.53
2018-05-03T06:08:33.356Z,101029.87
2018-05-03T06:11:36.756Z,101017.53
2018-05-03T06:14:40.082Z,101036.45
2018-05-03T06:17:43.509Z,101045.38
2018-05-03T06:20:46.809Z,101048.92
2018-05-03T06:23:50.158Z,101063.35
2018-05-03T06:26:53.469Z,101055.22
2018-05-03T06:29:56.850Z,101070.52
2018-05-03T06:33:00.154Z,101065.23
2018-05-03T06:36:03.489Z,101062.10
2018-05-03T06:39:07.556Z,101078.30
2018-05-03T06:42:10.886Z,101088.95
2018-05-03T06:45:14.276Z,101086.48
2018-05-03T06:48:17.547Z,101096.86
2018-05-03T06:51:20.863Z,101100.62
2018-05-03T06:54:24.257Z,101100.47
2018-05-03T06:57:27.570Z,101107.20
2018-05-03T07:00:30.892Z,101108.74
2018-05-03T07:03:34.971Z,101121.11
2018-05-03T07:06:38.370Z,101121.80
2018-05-03T07:09:41.668Z,101123.89
2018-05-03T07:12:45.223Z,101116.38
2018-05-03T07:15:48.521Z,101130.23
2018-05-03T07:18:51.869Z,101121.72
2018-05-03T07:21:55.183Z,101128.66
2018-05-03T07:24:58.535Z,101137.83
2018-05-03T07:28:01.851Z,101142.05
2018-05-03T07:31:05.180Z,101138.37
2018-05-03T07:34:08.559Z,101143.95
2018-05-03T07:37:11.957Z,101144.66
2018-05-03T07:40:15.264Z,101159.07
2018-05-03T07:43:18.653Z,101156.28
2018-05-03T07:46:21.965Z,101160.22
2018-05-03T07:49:25.303Z,101154.44
2018-05-03T07:52:28.623Z,101156.61
2018-05-03T07:55:31.955Z,101167.01
2018-05-03T07:58:35.355Z,101164.84
2018-05-03T08:01:39.561Z,101159.52
2018-05-03T08:04:42.866Z,101161.36
2018-05-03T08:07:46.268Z,101170.38
2018-05-03T08:10:49.652Z,101171.55
2018-05-03T08:13:53.052Z,101176.84
2018-05-03T08:16:56.483Z,101179.56
2018-05-03T08:19:59.864Z,101188.08
2018-05-03T08:23:03.182Z,101190.55
2018-05-03T08:26:08.036Z,101200.48
2018-05-03T08:29:12.110Z,101196.82
2018-05-03T08:32:15.508Z,101199.85
2018-05-03T08:35:18.826Z,101202.32
2018-05-03T08:38:22.177Z,101212.36
2018-05-03T08:41:25.490Z,101211.14
2018-05-03T08:44:28.894Z,101216.28
2018-05-03T08:47:33.020Z,101226.67
2018-05-03T08:50:36.422Z,101230.02
2018-05-03T08:53:39.720Z,101231.38
2018-05-03T08:56:43.070Z,101231.74
2018-05-03T08:59:46.388Z,101242.89
2018-05-03T09:02:49.757Z,101245.00
2018-05-03T09:05:53.920Z,101241.02
2018-05-03T09:08:57.334Z,101244.10
2018-05-03T09:12:00.723Z,101252.83
2018-05-03T09:15:04.176Z,101252.05
2018-05-03T09:18:07.448Z,101254.75
2018-05-03T09:21:10.840Z,101268.39
2018-05-03T09:24:14.230Z,101274.55
2018-05-03T09:27:17.565Z,101273.08
2018-05-03T09:30:21.638Z,101274.89
2018-05-03T09:33:24.986Z,101272.48
2018-05-03T09:36:29.063Z,101280.68
2018-05-03T09:39:32.463Z,101276.80
2018-05-03T09:42:36.821Z,101292.30
2018-05-03T09:45:40.938Z,101294.14
2018-05-03T09:48:45.006Z,101304.23
2018-05-03T09:51:48.360Z,101301.69
2018-05-03T09:54:52.520Z,101308.68
2018-05-03T09:57:55.852Z,101307.27
2018-05-03T10:00:59.246Z,101318.84
2018-05-03T10:04:02.647Z,101318.30
2018-05-03T10:07:05.979Z,101321.52
2018-05-03T10:10:09.313Z,101335.69
2018-05-03T10:13:12.753Z,101332.41
2018-05-03T10:16:16.117Z,101337.63
2018-05-03T10:19:19.430Z,101344.44
2018-05-03T10:22:22.885Z,101333.27
2018-05-03T10:25:26.203Z,101338.09
2018-05-03T10:28:29.521Z,101347.98
2018-05-03T10:31:32.837Z,101345.41
2018-05-03T10:34:36.176Z,101351.13
2018-05-03T10:37:39.473Z,101348.32
2018-05-03T10:40:42.937Z,101357.02
2018-05-03T10:43:46.312Z,101349.17
2018-05-03T10:46:49.664Z,101359.25
2018-05-03T10:49:53.069Z,101360.81
2018-05-03T10:52:56.402Z,101370.46
2018-05-03T10:55:59.720Z,101371.86
2018-05-03T10:59:03.058Z,101367.25
2018-05-03T11:02:06.357Z,101383.63
2018-05-03T11:05:09.825Z,101387.17
2018-05-03T11:08:13.131Z,101390.55
2018-05-03T11:11:16.493Z,101392.72
2018-05-03T11:14:19.857Z,101400.06
2018-05-03T11:17:23.305Z,101401.70
2018-05-03T11:20:26.633Z,101407.11
2018-05-03T11:23:30.736Z,101408.61
2018-05-03T11:26:34.071Z,101418.69
2018-05-03T11:29:37.399Z,101428.23
2018-05-03T11:32:40.709Z,101426.42
2018-05-03T11:35:44.060Z,101437.19
2018-05-03T11:38:47.370Z,101432.95
2018-05-03T11:41:50.805Z,101430.37
2018-05-03T11:44:54.119Z,101432.27
2018-05-03T11:47:57.522Z,101441.07
2018-05-03T11:51:00.847Z,101440.81
2018-05-03T11:54:05.000Z,101446.42
2018-05-03T11:57:08.352Z,101456.32
2018-05-03T12:00:11.698Z,101450.67
2018-05-03T12:03:15.118Z,101458.59
2018-05-03T12:06:18.513Z,101464.42
2018-05-03T12:09:21.929Z,101471.58
2018-05-03T12:12:25.282Z,101468.10
2018-05-03T12:15:28.595Z,101467.48
2018-05-03T12:18:31.969Z,101469.48
2018-05-03T12:21:35.272Z,101478.30
2018-05-03T12:24:38.606Z,101493.38
2018-05-03T12:27:42.023Z,101492.36
2018-05-03T12:30:45.409Z,101492.30
2018-05-03T12:33:48.729Z,101489.09
2018-05-03T12:36:52.113Z,101493.58
2018-05-03T12:39:55.506Z,101491.89
2018-05-03T12:42:58.906Z,101499.17
2018-05-03T12:46:02.222Z,101489.75
2018-05-03T12:49:05.565Z,101504.89
2018-05-03T12:52:09.527Z,101499.59
2018-05-03T12:55:12.891Z,101510.66
2018-05-03T12:58:16.217Z,101515.63
2018-05-03T13:01:19.694Z,101515.14
2018-05-03T13:04:23.728Z,101522.13
2018-05-03T13:07:27.143Z,101521.41
2018-05-03T13:10:30.475Z,101519.70
2018-05-03T13:13:34.600Z,101518.00
2018-05-03T13:16:37.924Z,101521.48
2018-05-03T13:19:41.332Z,101522.09
2018-05-03T13:22:44.637Z,101523.97
2018-05-03T13:25:48.038Z,101520.78
2018-05-03T13:28:51.342Z,101533.90
2018-05-03T13:31:54.685Z,101543.20
2018-05-03T13:34:58.776Z,101544.77
2018-05-03T13:38:02.142Z,101542.05
2018-05-03T13:41:05.485Z,101543.70
2018-05-03T13:44:09.620Z,101536.34
2018-05-03T13:47:12.960Z,101545.33
2018-05-03T13:50:16.303Z,101547.42
2018-05-03T13:53:20.491Z,101546.44
2018-05-03T13:56:24.566Z,101552.49
2018-05-03T13:59:27.883Z,101554.89
2018-05-03T14:02:31.229Z,101567.31
2018-05-03T14:05:35.426Z,101563.55
2018-05-03T14:08:38.770Z,101559.88
2018-05-03T14:11:42.076Z,101565.90
2018-05-03T14:14:45.517Z,101569.42
2018-05-03T14:17:48.826Z,101578.39
2018-05-03T14:20:53.104Z,101572.03
2018-05-03T14:23:56.367Z,101579.27
2018-05-03T14:27:00.538Z,101571.58
2018-05-03T14:30:03.850Z,101573.11
2018-05-03T14:33:07.197Z,101584.97
2018-05-03T14:36:10.503Z,101582.28
2018-05-03T14:39:13.950Z,101580.82
2018-05-03T14:42:17.268Z,101583.15
2018-05-03T14:45:20.630Z,101578.04
2018-05-03T14:48:24.069Z,101592.47
2018-05-03T14:51:27.432Z,101598.05
2018-05-03T14:54:30.836Z,101601.73
2018-05-03T14:57:34.254Z,101605.47
2018-05-03T15:00:37.588Z,101621.20
2018-05-03T15:03:41.768Z,101613.72
2018-05-03T15:06:45.165Z,101610.31
2018-05-03T15:09:48.562Z,101610.70
2018-05-03T15:12:51.954Z,101613.39
2018-05-03T15:15:55.290Z,101610.17
2018-05-03T15:18:59.476Z,101605.97
2018-05-03T15:22:02.874Z,101621.13
2018-05-03T15:25:06.469Z,101626.69
2018-05-03T15:28:09.819Z,101629.77
2018-05-03T15:31:13.899Z,101632.03
2018-05-03T15:34:17.248Z,101630.94
2018-05-03T15:37:20.574Z,101632.98
2018-05-03T15:40:23.995Z,101637.71
2018-05-03T15:43:27.391Z,101649.79
2018-05-03T15:46:30.749Z,101643.66
2018-05-03T15:49:34.062Z,101651.42
2018-05-03T15:52:37.462Z,101650.48
2018-05-03T15:55:40.856Z,101650.34
2018-05-03T15:58:44.143Z,101659.95
2018-05-03T16:01:47.458Z,101659.16
2018-05-03T16:04:50.793Z,101662.72
2018-05-03T16:07:54.197Z,101664.77
2018-05-03T16:10:57.545Z,101661.81
2018-05-03T16:14:00.863Z,101663.91
2018-05-03T16:17:04.222Z,101658.77
2018-05-03T16:20:08.297Z,101668.03
2018-05-03T16:23:11.701Z,101670.27
2018-05-03T16:26:15.044Z,101673.21
2018-05-03T16:29:18.505Z,101671.66
2018-05-03T16:32:21.874Z,101676.64
2018-05-03T16:35:25.232Z,101677.24
2018-05-03T16:38:29.396Z,101674.56
2018-05-03T16:41:32.801Z,101678.67
2018-05-03T16:44:36.210Z,101673.67
2018-05-03T16:47:39.607Z,101687.44
2018-05-03T16:50:42.917Z,101683.75
2018-05-03T16:53:46.313Z,101698.73
2018-05-03T16:56:49.626Z,101703.47
2018-05-03T16:59:54.494Z,101708.63
2018-05-03T17:02:57.811Z,101706.91
2018-05-03T17:06:01.241Z,101711.00
2018-05-03T17:09:04.582Z,101715.80
2018-05-03T17:12:08.762Z,101720.64
2018-05-03T17:15:12.795Z,101724.59
2018-05-03T17:18:16.221Z,101724.69
2018-05-03T17:21:19.528Z,101728.28
2018-05-03T17:24:22.967Z,101734.19
2018-05-03T17:27:26.280Z,101739.30
2018-05-03T17:30:29.676Z,101746.45
2018-05-03T17:33:33.071Z,101747.22
2018-05-03T17:36:36.401Z,101755.95
2018-05-03T17:39:40.491Z,101767.52
2018-05-03T17:42:43.830Z,101767.23
2018-05-03T17:45:47.154Z,101771.77
2018-05-03T17:48:50.585Z,101770.20
2018-05-03T17:51:53.904Z,101777.88
2018-05-03T17:54:58.103Z,101781.86
2018-05-03T17:58:01.482Z,101788.30
2018-05-03T18:01:04.898Z,101783.41
2018-05-03T18:04:08.174Z,101790.16
2018-05-03T18:07:11.519Z,101798.12
2018-05-03T18:10:14.892Z,101795.80
2018-05-03T18:13:18.292Z,101812.16
2018-05-03T18:16:21.704Z,101809.27
2018-05-03T18:19:24.985Z,101818.38
2018-05-03T18:22:28.374Z,101830.72
2018-05-03T18:25:31.731Z,101844.48
2018-05-03T18:28:35.813Z,101843.02
2018-05-03T18:31:39.161Z,101845.88
2018-05-03T18:34:42.468Z,101847.25
2018-05-03T18:37:45.814Z,101846.44
2018-05-03T18:40:49.120Z,101854.84
2018-05-03T18:43:52.514Z,101857.63
2018-05-03T18:46:55.824Z,101864.17
2018-05-03T18:50:00.021Z,101870.26
2018-05-03T18:53:03.406Z,101876.01
2018-05-03T18:56:06.819Z,101881.02
2018-05-03T18:59:10.164Z,101886.45
2018-05-03T19:02:13.515Z,101894.53
2018-05-03T19:05:16.909Z,101900.78
2018-05-03T19:08:20.256Z,101900.57
2018-05-03T19:11:23.616Z,101903.40
2018-05-03T19:14:26.967Z,101898.32
2018-05-03T19:17:30.283Z,101893.17
2018-05-03T19:20:33.688Z,101898.01
2018-05-03T19:23:36.970Z,101903.69
2018-05-03T19:26:40.386Z,101906.83
2018-05-03T19:29:43.714Z,101918.03
2018-05-03T19:32:47.086Z,101920.73
2018-05-03T19:35:50.406Z,101912.77
2018-05-03T19:38:53.845Z,101920.41
2018-05-03T19:41:57.183Z,101926.70
2018-05-03T19:45:00.514Z,101926.41
2018-05-03T19:48:03.823Z,101924.83
2018-05-03T19:51:08.023Z,101925.06
2018-05-03T19:54:11.331Z,101926.34
2018-05-03T19:57:14.700Z,101925.67
2018-05-03T20:00:18.031Z,101919.73
2018-05-03T20:03:22.226Z,101925.36
2018-05-03T20:06:25.527Z,101923.75
2018-05-03T20:09:28.906Z,101929.21
2018-05-03T20:12:32.398Z,101931.91
2018-05-03T20:15:35.780Z,101932.42
2018-05-03T20:18:39.130Z,101928.77
2018-05-03T20:21:42.509Z,101933.38
2018-05-03T20:24:45.829Z,101926.02
2018-05-03T20:27:49.218Z,101927.73
2018-05-03T20:30:52.733Z,101944.92
2018-05-03T20:33:56.119Z,101934.66
2018-05-03T20:36:59.513Z,101940.00
2018-05-03T20:40:03.105Z,101942.26
2018-05-03T20:43:06.420Z,101941.37
2018-05-03T20:46:09.887Z,101942.38
2018-05-03T20:49:13.275Z,101939.48
2018-05-03T20:52:16.716Z,101942.05
2018-05-03T20:55:20.293Z,101931.53
2018-05-03T20:58:23.726Z,101935.64
2018-05-03T21:01:27.042Z,101939.59
2018-05-03T21:04:30.386Z,101949.02
2018-05-03T21:07:33.750Z,101949.34
2018-05-03T21:10:37.953Z,101946.82
2018-05-03T21:13:41.268Z,101949.80
2018-05-03T21:16:44.616Z,101955.16
2018-05-03T21:19:47.959Z,101955.71
2018-05-03T21:22:51.502Z,101960.13
2018-05-03T21:25:54.810Z,101967.88
2018-05-03T21:28:58.234Z,101964.67
2018-05-03T21:32:01.625Z,101970.70
2018-05-03T21:35:04.961Z,101974.82
2018-05-03T21:38:08.262Z,101970.50
2018-05-03T21:41:12.446Z,101971.59
2018-05-03T21:44:15.755Z,101975.97
2018-05-03T21:47:19.101Z,101976.55
2018-05-03T21:50:22.445Z,101971.17
2018-05-03T21:53:25.806Z,101970.58
2018-05-03T21:56:29.131Z,101980.21
2018-05-03T21:59:32.456Z,101980.75
2018-05-03T22:02:35.858Z,101989.64
2018-05-03T22:05:39.197Z,101989.28
2018-05-03T22:08:42.516Z,101991.02
2018-05-03T22:11:45.837Z,101994.58
2018-05-03T22:14:49.264Z,101992.16
2018-05-03T22:17:52.640Z,101998.63
2018-05-03T22:20:55.943Z,102003.64
2018-05-03T22:23:59.277Z,102004.56
2018-05-03T22:27:03.441Z,102011.09
2018-05-03T22:30:06.802Z,102008.11
2018-05-03T22:33:10.141Z,102020.56
2018-05-03T22:36:13.541Z,102022.89
2018-05-03T22:39:16.856Z,102019.17
2018-05-03T22:42:20.248Z,102016.11
2018-05-03T22:45:23.565Z,102029.79
2018-05-03T22:48:26.874Z,102026.67
2018-05-03T22:51:31.055Z,102031.42
2018-05-03T22:54:34.389Z,102024.84
2018-05-03T22:57:38.462Z,102020.17
2018-05-03T23:00:41.778Z,102031.44
2018-05-03T23:03:45.161Z,102027.84
2018-05-03T23:06:48.462Z,102031.47
2018-05-03T23:09:51.858Z,102023.97
2018-05-03T23:12:55.167Z,102032.84
2018-05-03T23:15:58.521Z,102030.73
2018-05-03T23:19:01.817Z,102034.75
2018-05-03T23:22:05.160Z,102038.45
2018-05-03T23:25:08.479Z,102035.33
2018-05-03T23:28:11.850Z,102041.31
2018-05-03T23:31:15.148Z,102035.61
2018-05-03T23:34:18.444Z,102034.86
2018-05-03T23:37:21.773Z,102030.55
2018-05-03T23:40:25.072Z,102033.84
2018-05-03T23:43:28.370Z,102019.45
2018-05-03T23:46:31.749Z,102023.60
2018-05-03T23:49:35.123Z,102026.12
2018-05-03T23:52:38.425Z,102025.48
2018-05-03T23:55:41.747Z,102022.83
2018-05-03T23:58:45.138Z,102030.03
